Time;durP1;ratioP1;P1;durP2;ratioP2;P2;SDS_P1;SDS_P2;PMS_P1;PMS_P2;Temp;Humidity;BMP_temperature;BMP_pressure;BME280_temperature;BME280_humidity;BME280_pressure;Samples;Min_cycle;Max_cycle;Signal;HPM_P1;HPM_P2
2022/09/03 00:02:04;;;;;;;3.03;1.30;;;;;;;;;;5003949;28;20042;-57
2022/09/03 00:04:35;;;;;;;2.60;1.10;;;;;;;;;;4997183;28;20123;-56
2022/09/03 00:07:03;;;;;;;3.60;1.00;;;;;;;;;;4996049;28;20050;-56
2022/09/03 00:09:30;;;;;;;;;;;;;;;;;;5033445;28;20066;-58
2022/09/03 00:12:03;;;;;;;1.48;0.90;;;;;;;;;;4983666;28;19925;-58
2022/09/03 00:14:34;;;;;;;2.72;1.10;;;;;;;;;;4994026;28;20061;-58
2022/09/03 00:17:02;;;;;;;2.13;1.00;;;;;;;;;;5003319;28;20143;-57
2022/09/03 00:19:31;;;;;;;1.67;1.10;;;;;;;;;;5009645;28;20046;-57
2022/09/03 00:22:00;;;;;;;2.30;1.08;;;;;;;;;;5010700;28;20037;-58
2022/09/03 00:24:29;;;;;;;3.05;1.20;;;;;;;;;;5009942;28;20056;-58
2022/09/03 00:27:00;;;;;;;1.70;1.00;;;;;;;;;;5011748;28;20111;-57
2022/09/03 00:29:31;;;;;;;2.25;0.90;;;;;;;;;;4999002;28;20042;-57
2022/09/03 00:32:00;;;;;;;2.75;1.00;;;;;;;;;;4998526;28;20137;-58
2022/09/03 00:34:30;;;;;;;2.65;1.20;;;;;;;;;;5014463;28;20054;-59
2022/09/03 00:36:57;;;;;;;5.50;1.30;;;;;;;;;;4992580;28;20061;-58
2022/09/03 00:39:25;;;;;;;2.42;1.20;;;;;;;;;;4992247;28;20058;-58
2022/09/03 00:42:05;;;;;;;2.17;1.00;;;;;;;;;;5012945;28;20056;-57
2022/09/03 00:44:53;;;;;;;3.75;1.15;;;;;;;;;;5009984;28;20057;-57
2022/09/03 00:47:26;;;;;;;4.45;1.20;;;;;;;;;;4996079;28;20046;-59
2022/09/03 00:49:59;;;;;;;3.00;1.10;;;;;;;;;;5012905;28;20061;-58
2022/09/03 00:52:38;;;;;;;4.93;1.25;;;;;;;;;;4989430;28;20049;-58
2022/09/03 00:55:10;;;;;;;2.20;1.00;;;;;;;;;;5009470;28;20054;-58
2022/09/03 00:57:43;;;;;;;7.50;1.20;;;;;;;;;;5000854;28;20045;-58
2022/09/03 01:00:11;;;;;;;2.22;1.20;;;;;;;;;;5010355;28;20103;-57
2022/09/03 01:02:48;;;;;;;3.25;1.40;;;;;;;;;;5006163;28;20057;-58
2022/09/03 01:05:21;;;;;;;3.13;1.17;;;;;;;;;;5012464;28;20057;-58
2022/09/03 01:07:50;;;;;;;5.85;1.00;;;;;;;;;;5006160;28;20053;-58
2022/09/03 01:10:16;;;;;;;;;;;;;;;;;;5012744;28;20053;-56
2022/09/03 01:12:47;;;;;;;2.20;1.02;;;;;;;;;;5007854;28;19936;-57
2022/09/03 01:15:17;;;;;;;5.55;1.30;;;;;;;;;;5010573;28;20180;-58
2022/09/03 01:17:54;;;;;;;1.70;0.82;;;;;;;;;;5012094;28;20057;-58
2022/09/03 01:20:25;;;;;;;2.10;1.08;;;;;;;;;;5005698;28;20049;-58
2022/09/03 01:23:00;;;;;;;3.10;1.23;;;;;;;;;;5012703;28;20453;-57
2022/09/03 01:25:35;;;;;;;2.35;1.30;;;;;;;;;;4992213;28;20058;-57
2022/09/03 01:28:12;;;;;;;2.85;1.52;;;;;;;;;;5008526;28;20070;-57
2022/09/03 01:30:41;;;;;;;2.83;0.95;;;;;;;;;;5017398;28;20163;-57
2022/09/03 01:33:14;;;;;;;4.97;1.40;;;;;;;;;;5010782;28;20115;-58
2022/09/03 01:35:44;;;;;;;1.80;1.00;;;;;;;;;;5018508;28;20049;-57
2022/09/03 01:38:16;;;;;;;3.08;1.00;;;;;;;;;;5047442;28;20044;-57
2022/09/03 01:40:49;;;;;;;2.72;1.00;;;;;;;;;;5010283;28;20073;-58
2022/09/03 01:43:23;;;;;;;5.05;1.02;;;;;;;;;;5008131;28;20053;-58
2022/09/03 01:45:52;;;;;;;2.88;1.30;;;;;;;;;;5004340;28;20061;-56
2022/09/03 01:48:29;;;;;;;2.05;1.15;;;;;;;;;;5011395;28;20045;-58
2022/09/03 01:50:58;;;;;;;3.63;1.00;;;;;;;;;;5005509;28;20045;-59
2022/09/03 01:53:32;;;;;;;1.13;0.98;;;;;;;;;;5011491;28;20067;-58
2022/09/03 01:56:08;;;;;;;2.78;1.10;;;;;;;;;;5002787;28;20061;-57
2022/09/03 01:58:41;;;;;;;1.50;0.98;;;;;;;;;;5007414;28;20173;-58
2022/09/03 02:01:13;;;;;;;3.08;1.25;;;;;;;;;;5003955;28;20061;-57
2022/09/03 02:03:43;;;;;;;2.13;0.90;;;;;;;;;;5011133;28;20084;-58
2022/09/03 02:06:10;;;;;;;4.80;0.88;;;;;;;;;;5005189;28;20064;-57
2022/09/03 02:08:37;;;;;;;1.90;1.05;;;;;;;;;;5015184;28;20050;-57
2022/09/03 02:11:06;;;;;;;2.72;1.08;;;;;;;;;;4992026;28;20076;-57
2022/09/03 02:13:35;;;;;;;2.85;1.10;;;;;;;;;;5009683;28;20054;-58
2022/09/03 02:16:10;;;;;;;3.10;1.27;;;;;;;;;;4988092;28;20069;-58
2022/09/03 02:18:37;;;;;;;1.80;1.05;;;;;;;;;;5026089;28;20060;-57
2022/09/03 02:21:06;;;;;;;3.70;1.20;;;;;;;;;;5020713;28;20058;-57
2022/09/03 02:23:33;;;;;;;2.22;0.98;;;;;;;;;;5027486;28;20045;-57
2022/09/03 02:26:01;;;;;;;1.42;1.00;;;;;;;;;;5028205;28;20081;-57
2022/09/03 02:28:29;;;;;;;2.50;1.20;;;;;;;;;;5020474;28;20049;-57
2022/09/03 02:30:55;;;;;;;4.85;1.27;;;;;;;;;;5027113;28;20052;-57
2022/09/03 02:33:24;;;;;;;2.60;1.10;;;;;;;;;;5020069;28;20054;-57
2022/09/03 02:35:51;;;;;;;1.83;1.35;;;;;;;;;;5027575;28;20053;-58
2022/09/03 02:38:20;;;;;;;3.67;1.20;;;;;;;;;;5006268;28;20068;-58
2022/09/03 02:40:47;;;;;;;4.00;1.23;;;;;;;;;;5007433;28;20050;-58
2022/09/03 02:43:20;;;;;;;2.13;0.90;;;;;;;;;;5001796;28;20049;-58
2022/09/03 02:45:47;;;;;;;4.80;1.48;;;;;;;;;;5007304;28;20058;-57
2022/09/03 02:48:17;;;;;;;4.45;1.45;;;;;;;;;;4991485;28;20057;-59
2022/09/03 02:50:48;;;;;;;1.30;0.90;;;;;;;;;;4987354;28;20054;-57
2022/09/03 02:53:15;;;;;;;2.90;1.20;;;;;;;;;;4983522;28;20114;-58
2022/09/03 02:55:42;;;;;;;2.28;1.15;;;;;;;;;;4987911;28;20127;-56
2022/09/03 02:58:08;;;;;;;2.95;0.88;;;;;;;;;;4983488;28;20061;-58
2022/09/03 03:00:36;;;;;;;2.22;0.93;;;;;;;;;;4987472;28;20054;-58
2022/09/03 03:03:02;;;;;;;5.15;1.20;;;;;;;;;;4981998;28;20137;-57
2022/09/03 03:05:33;;;;;;;2.63;1.20;;;;;;;;;;4987391;28;20058;-58
2022/09/03 03:08:01;;;;;;;3.05;1.40;;;;;;;;;;4998960;28;20062;-58
2022/09/03 03:10:27;;;;;;;1.35;0.80;;;;;;;;;;5001790;28;20050;-57
2022/09/03 03:12:54;;;;;;;2.25;1.20;;;;;;;;;;4984491;28;20050;-57
2022/09/03 03:15:21;;;;;;;3.25;1.15;;;;;;;;;;5005250;28;20049;-58
2022/09/03 03:17:48;;;;;;;5.75;1.45;;;;;;;;;;5007328;28;20061;-58
2022/09/03 03:20:15;;;;;;;3.05;1.30;;;;;;;;;;4999919;28;20100;-58
2022/09/03 03:22:41;;;;;;;2.67;1.20;;;;;;;;;;5006511;28;20131;-57
2022/09/03 03:25:10;;;;;;;1.70;1.00;;;;;;;;;;5000246;28;20068;-58
2022/09/03 03:27:41;;;;;;;1.42;0.90;;;;;;;;;;5006152;28;20054;-58
2022/09/03 03:30:08;;;;;;;6.70;1.25;;;;;;;;;;5013760;28;20136;-59
2022/09/03 03:32:35;;;;;;;2.15;1.00;;;;;;;;;;5026068;28;20073;-58
2022/09/03 03:35:02;;;;;;;6.72;1.50;;;;;;;;;;4996996;28;20059;-58
2022/09/03 03:37:28;;;;;;;3.40;1.30;;;;;;;;;;4986849;28;20062;-57
2022/09/03 03:39:55;;;;;;;1.60;1.10;;;;;;;;;;4981535;28;20057;-58
2022/09/03 03:42:23;;;;;;;2.03;1.05;;;;;;;;;;4986337;28;20062;-58
2022/09/03 03:44:49;;;;;;;2.55;1.05;;;;;;;;;;4992164;28;20111;-58
2022/09/03 03:47:17;;;;;;;1.67;1.00;;;;;;;;;;5043097;28;20058;-58
2022/09/03 03:49:43;;;;;;;2.13;1.20;;;;;;;;;;5014708;28;20049;-58
2022/09/03 03:52:10;;;;;;;3.65;1.25;;;;;;;;;;4985845;28;20058;-58
2022/09/03 03:54:37;;;;;;;1.60;1.00;;;;;;;;;;4982179;28;20061;-58
2022/09/03 03:57:03;;;;;;;3.05;1.20;;;;;;;;;;5010458;28;20085;-58
2022/09/03 03:59:31;;;;;;;2.78;1.15;;;;;;;;;;5010369;28;20110;-58
2022/09/03 04:01:58;;;;;;;2.20;1.15;;;;;;;;;;5003718;28;20041;-58
2022/09/03 04:04:24;;;;;;;3.25;1.10;;;;;;;;;;5000460;28;20069;-59
2022/09/03 04:06:51;;;;;;;3.40;1.00;;;;;;;;;;4990117;28;20061;-57
2022/09/03 04:09:20;;;;;;;2.97;1.15;;;;;;;;;;5010934;28;20049;-59
2022/09/03 04:11:47;;;;;;;3.22;1.50;;;;;;;;;;5007256;28;20052;-59
2022/09/03 04:14:13;;;;;;;2.70;1.15;;;;;;;;;;5009742;28;20058;-58
2022/09/03 04:16:45;;;;;;;3.90;1.27;;;;;;;;;;5006701;28;20061;-58
2022/09/03 04:19:13;;;;;;;2.83;1.20;;;;;;;;;;5013675;28;20137;-58
2022/09/03 04:21:40;;;;;;;3.70;1.40;;;;;;;;;;5009675;28;20053;-58
2022/09/03 04:24:09;;;;;;;6.05;1.80;;;;;;;;;;5011671;28;20115;-58
2022/09/03 04:26:36;;;;;;;3.95;1.40;;;;;;;;;;5012721;28;20081;-58
2022/09/03 04:29:04;;;;;;;2.72;1.40;;;;;;;;;;5006559;28;20061;-58
2022/09/03 04:31:31;;;;;;;1.60;0.90;;;;;;;;;;5022528;28;20049;-58
2022/09/03 04:33:59;;;;;;;2.25;1.00;;;;;;;;;;5031666;28;20184;-58
2022/09/03 04:36:27;;;;;;;3.35;1.20;;;;;;;;;;5012987;28;20049;-57
2022/09/03 04:38:55;;;;;;;3.10;1.10;;;;;;;;;;5006916;28;20060;-58
2022/09/03 04:41:23;;;;;;;2.30;1.07;;;;;;;;;;5011942;28;20046;-57
2022/09/03 04:43:50;;;;;;;1.35;0.90;;;;;;;;;;5010418;28;20053;-57
2022/09/03 04:46:17;;;;;;;2.55;1.20;;;;;;;;;;5009114;28;20292;-57
2022/09/03 04:48:47;;;;;;;4.18;1.23;;;;;;;;;;5013385;28;20132;-58
2022/09/03 04:51:16;;;;;;;3.65;1.23;;;;;;;;;;5006744;28;20041;-58
2022/09/03 04:53:44;;;;;;;2.88;1.20;;;;;;;;;;5012291;28;20050;-58
2022/09/03 04:56:15;;;;;;;1.75;0.88;;;;;;;;;;5006372;28;20055;-58
2022/09/03 04:58:42;;;;;;;1.95;0.98;;;;;;;;;;5012215;28;20045;-57
2022/09/03 05:01:10;;;;;;;1.77;1.00;;;;;;;;;;5006527;28;20156;-57
2022/09/03 05:03:37;;;;;;;2.38;1.20;;;;;;;;;;5012419;28;20064;-58
2022/09/03 05:06:05;;;;;;;1.40;0.98;;;;;;;;;;5012066;28;20053;-58
2022/09/03 05:08:35;;;;;;;3.23;1.10;;;;;;;;;;5004365;28;20062;-58
2022/09/03 05:11:02;;;;;;;1.75;1.00;;;;;;;;;;5012067;28;20721;-58
2022/09/03 05:13:29;;;;;;;5.28;1.02;;;;;;;;;;5005660;28;20049;-58
2022/09/03 05:15:58;;;;;;;1.98;0.93;;;;;;;;;;5011385;28;20061;-58
2022/09/03 05:18:26;;;;;;;3.15;0.95;;;;;;;;;;5005708;28;20100;-58
2022/09/03 05:20:57;;;;;;;2.95;1.00;;;;;;;;;;5012272;28;20111;-58
2022/09/03 05:23:24;;;;;;;3.67;1.10;;;;;;;;;;5007009;28;20056;-58
2022/09/03 05:25:57;;;;;;;1.30;0.85;;;;;;;;;;5047756;28;20055;-58
2022/09/03 05:28:23;;;;;;;2.25;1.10;;;;;;;;;;5043742;28;20057;-58
2022/09/03 05:30:58;;;;;;;1.63;1.00;;;;;;;;;;5031124;28;20041;-58
2022/09/03 05:33:24;;;;;;;2.17;0.93;;;;;;;;;;5048328;28;20057;-58
2022/09/03 05:35:52;;;;;;;3.45;1.00;;;;;;;;;;5041639;28;20061;-58
2022/09/03 05:38:19;;;;;;;1.95;1.17;;;;;;;;;;5048044;28;20060;-58
2022/09/03 05:40:45;;;;;;;2.40;1.05;;;;;;;;;;5021307;28;20117;-58
2022/09/03 05:43:16;;;;;;;2.45;1.08;;;;;;;;;;4991948;28;20049;-60
2022/09/03 05:45:42;;;;;;;3.30;1.17;;;;;;;;;;4997802;28;20137;-58
2022/09/03 05:48:11;;;;;;;2.30;1.10;;;;;;;;;;5008733;28;20056;-59
2022/09/03 05:50:38;;;;;;;3.42;0.95;;;;;;;;;;5017352;28;20060;-59
2022/09/03 05:53:05;;;;;;;2.78;1.02;;;;;;;;;;5044870;28;20056;-58
2022/09/03 05:55:33;;;;;;;2.45;1.20;;;;;;;;;;5015609;28;20064;-58
2022/09/03 05:57:59;;;;;;;1.50;0.88;;;;;;;;;;5011400;28;20054;-58
2022/09/03 06:00:28;;;;;;;1.88;0.82;;;;;;;;;;5005706;28;20092;-58
2022/09/03 06:02:54;;;;;;;2.13;1.00;;;;;;;;;;5028193;28;20096;-57
2022/09/03 06:05:23;;;;;;;2.42;0.98;;;;;;;;;;5010610;28;20135;-58
2022/09/03 06:07:51;;;;;;;6.03;1.40;;;;;;;;;;5030291;28;20072;-58
2022/09/03 06:10:19;;;;;;;1.48;0.90;;;;;;;;;;5025057;28;20118;-58
2022/09/03 06:12:51;;;;;;;1.58;1.00;;;;;;;;;;5027964;28;20045;-59
2022/09/03 06:15:17;;;;;;;1.88;1.10;;;;;;;;;;5020499;28;20057;-58
2022/09/03 06:17:47;;;;;;;1.90;1.00;;;;;;;;;;5006839;28;20042;-58
2022/09/03 06:20:13;;;;;;;2.42;1.02;;;;;;;;;;4991872;28;20073;-58
2022/09/03 06:22:40;;;;;;;1.63;0.95;;;;;;;;;;5023648;28;20140;-59
2022/09/03 06:25:08;;;;;;;2.40;1.05;;;;;;;;;;5031429;28;20143;-58
2022/09/03 06:27:35;;;;;;;3.63;1.17;;;;;;;;;;5018813;28;20140;-58
2022/09/03 06:30:01;;;;;;;1.77;0.95;;;;;;;;;;5046822;28;20059;-58
2022/09/03 06:32:28;;;;;;;2.60;1.05;;;;;;;;;;5024140;28;20049;-61
2022/09/03 06:34:56;;;;;;;1.80;1.13;;;;;;;;;;4991360;28;20061;-58
2022/09/03 06:37:24;;;;;;;2.60;1.27;;;;;;;;;;5014011;28;20053;-58
2022/09/03 06:39:51;;;;;;;3.97;1.00;;;;;;;;;;5026897;28;20056;-58
2022/09/03 06:42:18;;;;;;;1.35;0.95;;;;;;;;;;5007798;28;20057;-59
2022/09/03 06:44:45;;;;;;;2.25;1.20;;;;;;;;;;5010863;28;20079;-58
2022/09/03 06:47:11;;;;;;;1.67;0.98;;;;;;;;;;5012095;28;20060;-58
2022/09/03 06:49:38;;;;;;;1.67;0.85;;;;;;;;;;5047737;28;20056;-57
2022/09/03 06:52:06;;;;;;;1.63;0.80;;;;;;;;;;5040930;28;20089;-58
2022/09/03 06:54:33;;;;;;;3.03;1.30;;;;;;;;;;5029570;28;20053;-61
2022/09/03 06:57:00;;;;;;;4.53;0.90;;;;;;;;;;5038443;28;20110;-58
2022/09/03 06:59:27;;;;;;;1.42;0.85;;;;;;;;;;5010478;28;20057;-58
2022/09/03 07:01:53;;;;;;;3.22;1.17;;;;;;;;;;5009207;28;20088;-60
2022/09/03 07:04:23;;;;;;;3.47;1.17;;;;;;;;;;5026789;28;20053;-58
2022/09/03 07:06:50;;;;;;;3.22;1.25;;;;;;;;;;5046619;28;20225;-58
2022/09/03 07:09:18;;;;;;;2.20;1.08;;;;;;;;;;5036486;28;20057;-58
2022/09/03 07:11:46;;;;;;;1.75;1.00;;;;;;;;;;4993529;28;20134;-59
2022/09/03 07:14:13;;;;;;;2.80;1.10;;;;;;;;;;4987355;28;20125;-59
2022/09/03 07:16:42;;;;;;;5.32;0.90;;;;;;;;;;4971738;28;20125;-59
2022/09/03 07:19:08;;;;;;;;;;;;;;;;;;4978483;28;20050;-58
2022/09/03 07:21:36;;;;;;;2.15;1.00;;;;;;;;;;4990411;28;19971;-59
2022/09/03 07:24:04;;;;;;;4.35;0.98;;;;;;;;;;5009013;28;20143;-59
2022/09/03 07:26:33;;;;;;;3.05;1.30;;;;;;;;;;4971553;28;20049;-59
2022/09/03 07:29:00;;;;;;;4.18;0.90;;;;;;;;;;4970478;28;20062;-59
2022/09/03 07:31:28;;;;;;;2.13;1.00;;;;;;;;;;5021599;28;20096;-59
2022/09/03 07:33:55;;;;;;;4.13;1.07;;;;;;;;;;5010864;28;20114;-58
2022/09/03 07:36:22;;;;;;;2.50;0.93;;;;;;;;;;4990082;28;20296;-58
2022/09/03 07:38:49;;;;;;;2.63;1.00;;;;;;;;;;4982715;28;20054;-58
2022/09/03 07:41:15;;;;;;;7.40;1.33;;;;;;;;;;4989770;28;20054;-58
2022/09/03 07:43:45;;;;;;;2.83;1.10;;;;;;;;;;4983870;28;20073;-58
2022/09/03 07:46:12;;;;;;;3.13;0.93;;;;;;;;;;5005144;28;20050;-59
2022/09/03 07:48:40;;;;;;;6.35;1.77;;;;;;;;;;4990341;28;20057;-58
2022/09/03 07:51:07;;;;;;;4.82;1.10;;;;;;;;;;5001830;28;20064;-58
2022/09/03 07:53:34;;;;;;;1.77;0.90;;;;;;;;;;4991314;28;20057;-59
2022/09/03 07:56:01;;;;;;;1.95;0.77;;;;;;;;;;4984776;28;20166;-56
2022/09/03 07:58:28;;;;;;;4.47;1.10;;;;;;;;;;4990965;28;20132;-58
2022/09/03 08:00:57;;;;;;;2.85;1.17;;;;;;;;;;4984606;28;20054;-58
2022/09/03 08:03:23;;;;;;;3.92;1.10;;;;;;;;;;5006158;28;20053;-55
2022/09/03 08:05:50;;;;;;;2.75;1.08;;;;;;;;;;4972676;28;20062;-58
2022/09/03 08:08:17;;;;;;;1.75;0.80;;;;;;;;;;4989766;28;20152;-57
2022/09/03 08:10:46;;;;;;;3.63;1.02;;;;;;;;;;4982454;28;20060;-57
2022/09/03 08:13:13;;;;;;;3.08;1.08;;;;;;;;;;4990439;28;20065;-58
2022/09/03 08:15:41;;;;;;;1.73;0.93;;;;;;;;;;4985818;28;20157;-58
2022/09/03 08:18:14;;;;;;;2.05;1.02;;;;;;;;;;4989385;28;20058;-58
2022/09/03 08:20:40;;;;;;;1.55;0.90;;;;;;;;;;4990628;28;20052;-58
2022/09/03 08:23:07;;;;;;;1.17;0.85;;;;;;;;;;4984458;28;20132;-57
2022/09/03 08:25:34;;;;;;;1.02;0.80;;;;;;;;;;4979870;28;20065;-58
2022/09/03 08:28:00;;;;;;;2.58;1.20;;;;;;;;;;4973751;28;20056;-56
2022/09/03 08:30:28;;;;;;;1.88;0.90;;;;;;;;;;4986362;28;20054;-57
2022/09/03 08:32:55;;;;;;;2.00;1.17;;;;;;;;;;4971899;28;20057;-59
2022/09/03 08:35:23;;;;;;;1.70;0.88;;;;;;;;;;4990397;28;20050;-53
2022/09/03 08:37:52;;;;;;;2.53;1.23;;;;;;;;;;4985746;28;20115;-56
2022/09/03 08:40:20;;;;;;;3.25;1.10;;;;;;;;;;4987733;28;20133;-58
2022/09/03 08:42:59;;;;;;;4.55;1.17;;;;;;;;;;4993605;28;20054;-57
2022/09/03 08:45:25;;;;;;;;;;;;;;;;;;4987937;28;20053;-57
2022/09/03 08:47:54;;;;;;;2.72;0.90;;;;;;;;;;4989745;28;19925;-58
2022/09/03 08:50:26;;;;;;;4.90;1.00;;;;;;;;;;4983352;28;20050;-58
2022/09/03 08:53:01;;;;;;;3.38;0.95;;;;;;;;;;4991477;28;20050;-58
2022/09/03 08:55:41;;;;;;;3.17;0.90;;;;;;;;;;4982386;28;20064;-58
2022/09/03 08:58:10;;;;;;;2.35;0.93;;;;;;;;;;5002561;28;20058;-57
2022/09/03 09:00:42;;;;;;;1.85;0.80;;;;;;;;;;4982258;28;20136;-55
2022/09/03 09:03:18;;;;;;;3.05;1.20;;;;;;;;;;4996273;28;20061;-56
2022/09/03 09:05:50;;;;;;;3.88;0.93;;;;;;;;;;5003899;28;20140;-57
2022/09/03 09:08:20;;;;;;;7.97;1.20;;;;;;;;;;4993619;28;20054;-57
2022/09/03 09:10:48;;;;;;;1.42;0.75;;;;;;;;;;5005292;28;20059;-57
2022/09/03 09:13:20;;;;;;;2.30;1.20;;;;;;;;;;4995676;28;20050;-57
2022/09/03 09:15:49;;;;;;;3.90;0.90;;;;;;;;;;5000439;28;20062;-57
2022/09/03 09:18:22;;;;;;;1.65;0.90;;;;;;;;;;4980777;28;20050;-57
2022/09/03 09:20:53;;;;;;;4.40;1.67;;;;;;;;;;4988473;28;20047;-58
2022/09/03 09:23:23;;;;;;;2.92;1.00;;;;;;;;;;4990975;28;20050;-57
2022/09/03 09:25:50;;;;;;;5.18;1.45;;;;;;;;;;4989149;28;20054;-56
2022/09/03 09:28:18;;;;;;;2.67;1.33;;;;;;;;;;4983793;28;20050;-56
2022/09/03 09:30:46;;;;;;;4.47;1.13;;;;;;;;;;4989015;28;20053;-57
2022/09/03 09:33:12;;;;;;;4.03;1.27;;;;;;;;;;4982403;28;20047;-57
2022/09/03 09:35:41;;;;;;;2.92;1.13;;;;;;;;;;4989467;28;20333;-57
2022/09/03 09:38:09;;;;;;;3.22;1.10;;;;;;;;;;4988065;28;20054;-57
2022/09/03 09:40:37;;;;;;;1.85;0.95;;;;;;;;;;4984778;28;20055;-57
2022/09/03 09:43:05;;;;;;;2.50;1.10;;;;;;;;;;4969641;28;20070;-58
2022/09/03 09:45:33;;;;;;;2.47;1.30;;;;;;;;;;4980038;28;20046;-58
2022/09/03 09:48:01;;;;;;;5.57;0.90;;;;;;;;;;4987031;28;20062;-58
2022/09/03 09:50:28;;;;;;;3.38;1.00;;;;;;;;;;4983463;28;20065;-58
2022/09/03 09:53:07;;;;;;;2.50;1.30;;;;;;;;;;5004705;28;20058;-57
2022/09/03 09:55:37;;;;;;;2.33;0.88;;;;;;;;;;5000109;28;20056;-58
2022/09/03 09:58:10;;;;;;;1.38;0.80;;;;;;;;;;4988257;28;20054;-57
2022/09/03 10:00:37;;;;;;;3.47;1.00;;;;;;;;;;4967593;28;20055;-57
2022/09/03 10:03:12;;;;;;;1.60;0.90;;;;;;;;;;4988254;28;20125;-58
2022/09/03 10:05:43;;;;;;;5.03;1.08;;;;;;;;;;4972195;28;20050;-57
2022/09/03 10:08:20;;;;;;;2.50;1.00;;;;;;;;;;4980927;28;20066;-57
2022/09/03 10:10:49;;;;;;;1.60;0.90;;;;;;;;;;4985487;28;20058;-55
2022/09/03 10:13:18;;;;;;;2.45;1.00;;;;;;;;;;4980222;28;20064;-57
2022/09/03 10:15:47;;;;;;;2.92;1.00;;;;;;;;;;4986651;28;20054;-55
2022/09/03 10:18:24;;;;;;;1.73;0.80;;;;;;;;;;4990167;28;20050;-55
2022/09/03 10:20:54;;;;;;;2.22;0.90;;;;;;;;;;4992584;28;20048;-56
2022/09/03 10:23:23;;;;;;;2.03;1.10;;;;;;;;;;4993374;28;20046;-61
2022/09/03 10:26:03;;;;;;;8.07;1.40;;;;;;;;;;5004234;28;20054;-57
2022/09/03 10:28:36;;;;;;;3.10;1.23;;;;;;;;;;4991424;28;20108;-57
2022/09/03 10:31:24;;;;;;;1.52;0.93;;;;;;;;;;5000381;28;20050;-57
2022/09/03 10:33:54;;;;;;;4.05;1.40;;;;;;;;;;4981802;28;20057;-58
2022/09/03 10:36:25;;;;;;;3.00;1.20;;;;;;;;;;4994674;28;20116;-59
2022/09/03 10:39:00;;;;;;;4.20;1.33;;;;;;;;;;4983879;28;20050;-57
2022/09/03 10:41:33;;;;;;;3.25;1.27;;;;;;;;;;4996651;28;20056;-55
2022/09/03 10:44:18;;;;;;;3.00;0.98;;;;;;;;;;4985679;28;20169;-57
2022/09/03 10:46:49;;;;;;;2.00;1.02;;;;;;;;;;4999943;28;20053;-61
2022/09/03 10:49:22;;;;;;;3.15;1.10;;;;;;;;;;4987459;28;20058;-57
2022/09/03 10:51:52;;;;;;;4.78;1.23;;;;;;;;;;4994684;28;20120;-64
2022/09/03 10:54:26;;;;;;;2.15;1.02;;;;;;;;;;4992329;28;20065;-59
2022/09/03 10:57:00;;;;;;;2.95;1.30;;;;;;;;;;4986886;28;20054;-56
2022/09/03 10:59:32;;;;;;;5.03;1.13;;;;;;;;;;4995735;28;20104;-58
2022/09/03 11:02:02;;;;;;;3.75;1.30;;;;;;;;;;4971988;28;20045;-52
2022/09/03 11:04:30;;;;;;;3.70;1.30;;;;;;;;;;4983678;28;20046;-58
2022/09/03 11:07:00;;;;;;;2.55;1.08;;;;;;;;;;4963383;28;20061;-61
2022/09/03 11:09:31;;;;;;;2.40;1.10;;;;;;;;;;4999401;28;20065;-61
2022/09/03 11:12:01;;;;;;;5.20;1.15;;;;;;;;;;4978806;28;20058;-56
2022/09/03 11:14:31;;;;;;;7.03;1.50;;;;;;;;;;4988764;28;20049;-65
2022/09/03 11:17:02;;;;;;;7.30;1.10;;;;;;;;;;4980955;28;20060;-65
2022/09/03 11:19:33;;;;;;;2.65;1.08;;;;;;;;;;4989899;28;20062;-65
2022/09/03 11:22:00;;;;;;;3.97;1.00;;;;;;;;;;4986030;28;20065;-59
2022/09/03 11:24:27;;;;;;;4.63;1.20;;;;;;;;;;4983301;28;20050;-58
2022/09/03 11:26:57;;;;;;;2.30;1.20;;;;;;;;;;4996793;28;20045;-53
2022/09/03 11:29:30;;;;;;;4.30;1.13;;;;;;;;;;4980586;28;20053;-53
2022/09/03 11:31:59;;;;;;;5.57;1.02;;;;;;;;;;4996167;28;20134;-64
2022/09/03 11:34:30;;;;;;;2.25;1.20;;;;;;;;;;4980070;28;20064;-60
2022/09/03 11:37:16;;;;;;;3.17;1.00;;;;;;;;;;4987705;28;20054;-62
2022/09/03 11:39:42;;;;;;;1.70;1.00;;;;;;;;;;4997039;28;20050;-56
2022/09/03 11:42:11;;;;;;;2.15;1.20;;;;;;;;;;4988450;28;20197;-57
2022/09/03 11:44:40;;;;;;;4.38;1.20;;;;;;;;;;4993914;28;20060;-56
2022/09/03 11:47:16;;;;;;;1.65;0.93;;;;;;;;;;4986547;28;20054;-64
2022/09/03 11:49:49;;;;;;;2.10;1.00;;;;;;;;;;5004518;28;20054;-56
2022/09/03 11:52:25;;;;;;;1.50;1.00;;;;;;;;;;4987319;28;20050;-55
2022/09/03 11:54:52;;;;;;;2.95;1.27;;;;;;;;;;4989413;28;20042;-59
2022/09/03 11:57:24;;;;;;;2.20;0.90;;;;;;;;;;4980639;28;20061;-68
2022/09/03 11:59:52;;;;;;;2.95;1.10;;;;;;;;;;4989483;28;20054;-56
2022/09/03 12:02:26;;;;;;;4.22;1.30;;;;;;;;;;4966739;28;20044;-63
2022/09/03 12:04:59;;;;;;;2.53;1.08;;;;;;;;;;4978309;28;20089;-68
2022/09/03 12:07:34;;;;;;;2.42;1.10;;;;;;;;;;4978370;28;20058;-64
2022/09/03 12:10:12;;;;;;;1.45;0.90;;;;;;;;;;4997570;28;20060;-64
2022/09/03 12:12:52;;;;;;;2.67;1.07;;;;;;;;;;4978800;28;20142;-66
2022/09/03 12:15:27;;;;;;;4.95;1.40;;;;;;;;;;4988498;28;20058;-61
2022/09/03 12:20:37;;;;;;;1.73;1.02;;;;;;;;;;4991911;28;20062;-63
2022/09/03 12:23:03;;;;;;;3.42;1.20;;;;;;;;;;4993025;28;20054;-66
2022/09/03 12:25:30;;;;;;;2.65;1.50;;;;;;;;;;4983724;28;20108;-58
2022/09/03 12:28:02;;;;;;;5.80;1.15;;;;;;;;;;4992306;28;20115;-63
2022/09/03 12:30:31;;;;;;;6.43;1.25;;;;;;;;;;4982808;28;20053;-61
2022/09/03 12:33:04;;;;;;;1.75;1.00;;;;;;;;;;4991238;28;20078;-65
2022/09/03 12:35:30;;;;;;;2.17;1.10;;;;;;;;;;4983761;28;20049;-68
2022/09/03 12:37:57;;;;;;;5.50;1.17;;;;;;;;;;4991626;28;20049;-65
2022/09/03 12:40:25;;;;;;;3.78;1.15;;;;;;;;;;4986054;28;20061;-70
2022/09/03 12:42:52;;;;;;;2.67;0.90;;;;;;;;;;5000555;28;20061;-65
2022/09/03 12:45:22;;;;;;;6.10;1.10;;;;;;;;;;4991915;28;20065;-59
2022/09/03 12:47:54;;;;;;;3.47;1.38;;;;;;;;;;4983611;28;20058;-62
2022/09/03 12:50:21;;;;;;;1.45;0.90;;;;;;;;;;4991480;28;20069;-62
2022/09/03 12:52:49;;;;;;;3.30;1.20;;;;;;;;;;4983833;28;20054;-58
2022/09/03 12:55:24;;;;;;;2.42;1.13;;;;;;;;;;4991723;28;20053;-62
2022/09/03 12:57:55;;;;;;;2.38;1.08;;;;;;;;;;4982198;28;20100;-67
2022/09/03 13:00:22;;;;;;;2.42;1.10;;;;;;;;;;4991611;28;20050;-59
2022/09/03 13:02:52;;;;;;;1.55;1.05;;;;;;;;;;4986116;28;20051;-57
2022/09/03 13:05:21;;;;;;;4.22;1.30;;;;;;;;;;4980849;28;20061;-65
2022/09/03 13:07:51;;;;;;;2.13;1.17;;;;;;;;;;4993001;28;20069;-63
2022/09/03 13:10:25;;;;;;;3.30;1.17;;;;;;;;;;4986862;28;20139;-58
2022/09/03 13:12:52;;;;;;;3.10;1.00;;;;;;;;;;5000416;28;20073;-55
2022/09/03 13:15:21;;;;;;;2.45;1.10;;;;;;;;;;4987531;28;20085;-67
2022/09/03 13:18:02;;;;;;;1.55;0.90;;;;;;;;;;5009526;28;20061;-59
2022/09/03 13:20:33;;;;;;;3.17;1.20;;;;;;;;;;4994660;28;20120;-57
2022/09/03 13:23:10;;;;;;;2.90;1.20;;;;;;;;;;4993170;28;20056;-61
2022/09/03 13:25:40;;;;;;;2.40;1.00;;;;;;;;;;4987088;28;20069;-53
2022/09/03 13:28:26;;;;;;;1.90;1.00;;;;;;;;;;4993554;28;20061;-55
2022/09/03 13:30:55;;;;;;;2.13;1.17;;;;;;;;;;4987111;28;20069;-57
2022/09/03 13:33:24;;;;;;;1.77;1.13;;;;;;;;;;5006488;28;20140;-59
2022/09/03 13:35:55;;;;;;;2.55;1.20;;;;;;;;;;5014804;28;20135;-66
2022/09/03 13:38:28;;;;;;;2.15;1.05;;;;;;;;;;4987614;28;20058;-65
2022/09/03 13:40:56;;;;;;;2.67;1.15;;;;;;;;;;4990638;28;20046;-66
2022/09/03 13:43:27;;;;;;;1.42;1.00;;;;;;;;;;4987113;28;20064;-64
2022/09/03 13:45:56;;;;;;;6.03;1.40;;;;;;;;;;4989787;28;20076;-64
2022/09/03 13:51:29;;;;;;;4.40;1.35;;;;;;;;;;4927561;29;20055;-66
2022/09/03 13:54:03;;;;;;;3.15;1.50;;;;;;;;;;4907281;29;20056;-62
2022/09/03 13:56:36;;;;;;;5.32;1.38;;;;;;;;;;4960730;28;20057;-64
2022/09/03 13:59:12;;;;;;;4.53;1.35;;;;;;;;;;4987628;28;20093;-69
2022/09/03 14:01:45;;;;;;;2.45;1.23;;;;;;;;;;4997102;28;20060;-64
2022/09/03 14:04:14;;;;;;;2.83;1.10;;;;;;;;;;4992317;28;20093;-64
2022/09/03 14:06:45;;;;;;;6.53;1.25;;;;;;;;;;4994794;28;20116;-66
2022/09/03 14:09:15;;;;;;;3.10;1.30;;;;;;;;;;5002624;28;20054;-61
2022/09/03 14:11:48;;;;;;;2.30;1.25;;;;;;;;;;4983720;28;20148;-69
2022/09/03 14:14:19;;;;;;;3.85;1.20;;;;;;;;;;4989494;28;20050;-66
2022/09/03 14:16:49;;;;;;;3.13;1.15;;;;;;;;;;4980740;28;20061;-69
2022/09/03 14:19:20;;;;;;;3.40;1.55;;;;;;;;;;4989145;28;20118;-69
2022/09/03 14:21:52;;;;;;;2.05;1.27;;;;;;;;;;4983734;28;20117;-63
2022/09/03 14:24:22;;;;;;;1.95;1.05;;;;;;;;;;4990054;28;20069;-65
2022/09/03 14:26:52;;;;;;;2.65;1.30;;;;;;;;;;4985829;28;20050;-70
2022/09/03 14:29:20;;;;;;;3.15;1.30;;;;;;;;;;4990678;28;20054;-70
2022/09/03 14:31:54;;;;;;;5.18;1.50;;;;;;;;;;4986703;28;20042;-68
2022/09/03 14:34:27;;;;;;;10.70;1.50;;;;;;;;;;4990770;28;20089;-62
2022/09/03 14:37:00;;;;;;;2.30;1.30;;;;;;;;;;4981172;28;20053;-62
2022/09/03 14:39:30;;;;;;;2.55;1.20;;;;;;;;;;5005139;28;20050;-66
2022/09/03 14:42:04;;;;;;;2.47;1.13;;;;;;;;;;4986423;28;20069;-67
2022/09/03 14:44:38;;;;;;;2.88;1.30;;;;;;;;;;4989903;28;20058;-63
2022/09/03 14:47:10;;;;;;;3.85;1.40;;;;;;;;;;4984765;28;20141;-58
2022/09/03 14:49:58;;;;;;;4.43;1.20;;;;;;;;;;5006585;28;20112;-54
2022/09/03 14:52:38;;;;;;;2.70;1.15;;;;;;;;;;4984782;28;20049;-65
2022/09/03 14:55:12;;;;;;;1.77;1.10;;;;;;;;;;4989637;28;20054;-62
2022/09/03 14:57:44;;;;;;;1.55;1.10;;;;;;;;;;4984911;28;20059;-62
2022/09/03 15:00:14;;;;;;;4.88;1.50;;;;;;;;;;4991470;28;20061;-60
2022/09/03 15:02:58;;;;;;;2.55;1.10;;;;;;;;;;5000731;28;20053;-66
2022/09/03 15:05:34;;;;;;;3.47;1.23;;;;;;;;;;4989983;28;20057;-68